Time;durP1;ratioP1;P1;durP2;ratioP2;P2;SDS_P1;SDS_P2;PMS_P1;PMS_P2;Temp;Humidity;BMP_temperature;BMP_pressure;BME280_temperature;BME280_humidity;BME280_pressure;Samples;Min_cycle;Max_cycle;Signal;HPM_P1;HPM_P2
2022/04/16 00:01:49;;;;;;;5.9;4.9;;;;;;;;;;;;;
2022/04/16 00:04:14;;;;;;;5.8;4.7;;;;;;;;;;;;;
2022/04/16 00:06:39;;;;;;;5.8;5.1;;;;;;;;;;;;;
2022/04/16 00:09:08;;;;;;;6.7;5.3;;;;;;;;;;;;;
2022/04/16 00:11:33;;;;;;;7.7;5.2;;;;;;;;;;;;;
2022/04/16 00:13:58;;;;;;;5.1;4.6;;;;;;;;;;;;;
2022/04/16 00:16:23;;;;;;;5.9;4.3;;;;;;;;;;;;;
2022/04/16 00:18:49;;;;;;;5.4;4.5;;;;;;;;;;;;;
2022/04/16 00:21:15;;;;;;;5.1;3.8;;;;;;;;;;;;;
2022/04/16 00:23:40;;;;;;;5;4;;;;;;;;;;;;;
2022/04/16 00:26:05;;;;;;;5.7;4.4;;;;;;;;;;;;;
2022/04/16 00:29:01;;;;;;;5;4.5;;;;;;;;;;;;;
2022/04/16 00:31:28;;;;;;;5.4;4.2;;;;;;;;;;;;;
2022/04/16 00:33:52;;;;;;;5.6;4.3;;;;;;;;;;;;;
2022/04/16 00:36:17;;;;;;;4.8;4.1;;;;;;;;;;;;;
2022/04/16 00:38:42;;;;;;;4.9;4.1;;;;;;;;;;;;;
2022/04/16 00:41:08;;;;;;;5.1;4.3;;;;;;;;;;;;;
2022/04/16 00:43:33;;;;;;;5;4;;;;;;;;;;;;;
2022/04/16 00:46:00;;;;;;;4.7;3.9;;;;;;;;;;;;;
2022/04/16 00:48:25;;;;;;;4.7;4.2;;;;;;;;;;;;;
2022/04/16 00:50:50;;;;;;;5.9;4.3;;;;;;;;;;;;;
2022/04/16 00:53:16;;;;;;;5.2;3.8;;;;;;;;;;;;;
2022/04/16 00:55:41;;;;;;;5.4;4;;;;;;;;;;;;;
2022/04/16 00:58:08;;;;;;;6.4;3.9;;;;;;;;;;;;;
2022/04/16 01:00:33;;;;;;;5.2;3.9;;;;;;;;;;;;;
2022/04/16 01:02:59;;;;;;;5.3;3.7;;;;;;;;;;;;;
2022/04/16 01:05:25;;;;;;;4.3;3.6;;;;;;;;;;;;;
2022/04/16 01:07:53;;;;;;;4.5;3.7;;;;;;;;;;;;;
2022/04/16 01:10:15;;;;;;;4.7;4;;;;;;;;;;;;;
2022/04/16 01:12:43;;;;;;;6.9;4.2;;;;;;;;;;;;;
2022/04/16 01:15:06;;;;;;;5.9;3.6;;;;;;;;;;;;;
2022/04/16 01:17:32;;;;;;;6.6;3.7;;;;;;;;;;;;;
2022/04/16 01:19:57;;;;;;;4.8;3.7;;;;;;;;;;;;;
2022/04/16 01:22:23;;;;;;;6;4.1;;;;;;;;;;;;;
2022/04/16 01:24:49;;;;;;;5.2;4.2;;;;;;;;;;;;;
2022/04/16 01:27:14;;;;;;;5.1;4;;;;;;;;;;;;;
2022/04/16 01:29:40;;;;;;;5.2;3.7;;;;;;;;;;;;;
2022/04/16 01:32:06;;;;;;;6.3;4.3;;;;;;;;;;;;;
2022/04/16 01:34:30;;;;;;;5.8;4.4;;;;;;;;;;;;;
2022/04/16 01:37:02;;;;;;;4.8;3.9;;;;;;;;;;;;;
2022/04/16 01:39:22;;;;;;;6.8;4.1;;;;;;;;;;;;;
2022/04/16 01:41:47;;;;;;;5.3;4.1;;;;;;;;;;;;;
2022/04/16 01:44:13;;;;;;;4.6;3.9;;;;;;;;;;;;;
2022/04/16 01:46:38;;;;;;;5.2;3.6;;;;;;;;;;;;;
2022/04/16 01:49:05;;;;;;;4.4;3.6;;;;;;;;;;;;;
2022/04/16 01:51:30;;;;;;;5.6;3.6;;;;;;;;;;;;;
2022/04/16 01:53:55;;;;;;;5;4.1;;;;;;;;;;;;;
2022/04/16 01:56:21;;;;;;;5.7;3.8;;;;;;;;;;;;;
2022/04/16 01:58:46;;;;;;;5.8;4.2;;;;;;;;;;;;;
2022/04/16 02:01:12;;;;;;;6.3;3.6;;;;;;;;;;;;;
2022/04/16 02:03:37;;;;;;;6;4.3;;;;;;;;;;;;;
2022/04/16 02:06:02;;;;;;;6.8;4.3;;;;;;;;;;;;;
2022/04/16 02:08:27;;;;;;;6;4;;;;;;;;;;;;;
2022/04/16 02:10:52;;;;;;;5.4;4.1;;;;;;;;;;;;;
2022/04/16 02:13:18;;;;;;;6.6;4.4;;;;;;;;;;;;;
2022/04/16 02:15:43;;;;;;;5;4.1;;;;;;;;;;;;;
2022/04/16 02:18:10;;;;;;;5.2;4.4;;;;;;;;;;;;;
2022/04/16 02:20:36;;;;;;;5.8;4.1;;;;;;;;;;;;;
2022/04/16 02:23:01;;;;;;;5.1;4.1;;;;;;;;;;;;;
2022/04/16 02:25:26;;;;;;;5;3.9;;;;;;;;;;;;;
2022/04/16 02:27:52;;;;;;;5.2;3.9;;;;;;;;;;;;;
2022/04/16 02:30:17;;;;;;;5.1;4;;;;;;;;;;;;;
2022/04/16 02:32:45;;;;;;;5.1;4;;;;;;;;;;;;;
2022/04/16 02:35:10;;;;;;;6.9;3.8;;;;;;;;;;;;;
2022/04/16 02:37:36;;;;;;;5.2;4.2;;;;;;;;;;;;;
2022/04/16 02:40:01;;;;;;;4.3;3.7;;;;;;;;;;;;;
2022/04/16 02:42:27;;;;;;;5.7;4.1;;;;;;;;;;;;;
2022/04/16 02:47:17;;;;;;;4.8;4.2;;;;;;;;;;;;;
2022/04/16 02:49:44;;;;;;;5.6;4.2;;;;;;;;;;;;;
2022/04/16 02:52:09;;;;;;;5.4;4.1;;;;;;;;;;;;;
2022/04/16 02:54:35;;;;;;;5.3;4.3;;;;;;;;;;;;;
2022/04/16 02:57:00;;;;;;;6;4.3;;;;;;;;;;;;;
2022/04/16 02:59:27;;;;;;;5.4;4.5;;;;;;;;;;;;;
2022/04/16 03:01:51;;;;;;;5;3.9;;;;;;;;;;;;;
2022/04/16 03:04:18;;;;;;;6.6;4.5;;;;;;;;;;;;;
2022/04/16 03:06:43;;;;;;;4.8;4;;;;;;;;;;;;;
2022/04/16 03:09:09;;;;;;;6;3.8;;;;;;;;;;;;;
2022/04/16 03:11:34;;;;;;;5.2;3.9;;;;;;;;;;;;;
2022/04/16 03:17:31;;;;;;;5.5;4.2;;;;;;;;;;;;;
2022/04/16 03:18:50;;;;;;;4.9;3.9;;;;;;;;;;;;;
2022/04/16 03:21:16;;;;;;;5;4;;;;;;;;;;;;;
2022/04/16 03:23:41;;;;;;;4.9;3.6;;;;;;;;;;;;;
2022/04/16 03:26:08;;;;;;;5.9;4.3;;;;;;;;;;;;;
2022/04/16 03:28:33;;;;;;;6;4.1;;;;;;;;;;;;;
2022/04/16 03:30:59;;;;;;;5.1;4.3;;;;;;;;;;;;;
2022/04/16 03:33:25;;;;;;;5.8;4.2;;;;;;;;;;;;;
2022/04/16 03:35:51;;;;;;;6;4.4;;;;;;;;;;;;;
2022/04/16 03:38:16;;;;;;;5.2;4.2;;;;;;;;;;;;;
2022/04/16 03:40:44;;;;;;;5.3;4.5;;;;;;;;;;;;;
2022/04/16 03:43:09;;;;;;;5.7;4.5;;;;;;;;;;;;;
2022/04/16 03:45:35;;;;;;;5.3;4.6;;;;;;;;;;;;;
2022/04/16 03:48:00;;;;;;;5.2;4.4;;;;;;;;;;;;;
2022/04/16 03:50:26;;;;;;;5;4.5;;;;;;;;;;;;;
2022/04/16 03:52:51;;;;;;;5.5;4.7;;;;;;;;;;;;;
2022/04/16 04:02:41;;;;;;;5;4.4;;;;;;;9.39;77.18262;944.4511;;;;
2022/04/16 04:05:06;;;;;;;5.5;4.8;;;;;;;9.41;76.81152;944.5427;;;;
2022/04/16 04:07:40;;;;;;;6.2;5;;;;;;;9.28;77.31348;944.5869;;;;
2022/04/16 04:10:16;;;;;;;5.2;4.7;;;;;;;9.32;77.51367;944.537;;;;
2022/04/16 04:12:48;;;;;;;6;5;;;;;;;9.36;77.05273;944.5435;;;;
2022/04/16 04:18:53;;;;;;;4.9;4.3;;;;;;;9.26;77.34277;944.5323;;;;
2022/04/16 04:21:13;;;;;;;6.2;5;;;;;;;9.33;77.07031;944.5888;;;;
2022/04/16 04:23:44;;;;;;;6.8;4.9;;;;;;;9.31;76.99902;944.6099;;;;
2022/04/16 04:26:09;;;;;;;6.2;4.9;;;;;;;9.28;77.42578;944.5756;;;;
2022/04/16 04:28:40;;;;;;;7;5.4;;;;;;;9.29;77.05176;944.5338;;;;
2022/04/16 04:35:00;;;;;;;6.7;5.6;;;;;;;9.19;77.45508;944.64;;;;
2022/04/16 04:37:29;;;;;;;6.8;5.8;;;;;;;9.24;77.23535;944.6462;;;;
2022/04/16 04:39:56;;;;;;;8.2;6.4;;;;;;;9.26;77.28516;944.6959;;;;
2022/04/16 04:42:21;;;;;;;8.8;5.9;;;;;;;9.23;77.63379;944.7383;;;;
2022/04/16 04:44:47;;;;;;;6.7;5.5;;;;;;;8.99;78.2041;944.7386;;;;
2022/04/16 04:47:12;;;;;;;6.1;5.2;;;;;;;9.02;78.41406;944.7453;;;;
2022/04/16 04:49:41;;;;;;;6.9;5.1;;;;;;;9.2;77.65137;944.7467;;;;
2022/04/16 04:52:06;;;;;;;7.9;4.9;;;;;;;9.15;78.03027;944.7519;;;;
2022/04/16 04:54:36;;;;;;;8.4;5.4;;;;;;;9.26;78.04785;944.793;;;;
2022/04/16 04:57:01;;;;;;;5.6;4.8;;;;;;;9.42;77.04004;944.8011;;;;
2022/04/16 04:59:27;;;;;;;7;5.1;;;;;;;9.35;77.1084;944.7983;;;;
2022/04/16 05:01:53;;;;;;;7.1;5.9;;;;;;;9.24;77.42871;944.7488;;;;
2022/04/16 05:04:24;;;;;;;6.6;5.4;;;;;;;9.01;78.12793;944.8384;;;;
2022/04/16 05:06:55;;;;;;;6.1;5.5;;;;;;;8.68;79.9541;944.8208;;;;
2022/04/16 05:09:20;;;;;;;5.8;5.2;;;;;;;8.91;79.25879;944.7947;;;;
2022/04/16 05:11:49;;;;;;;6.7;5.2;;;;;;;8.97;79.16797;944.8192;;;;
2022/04/16 05:14:15;;;;;;;6.6;5.5;;;;;;;8.98;79.49902;944.8671;;;;
2022/04/16 05:16:40;;;;;;;5.7;5.1;;;;;;;9.17;78.51953;944.8014;;;;
2022/04/16 05:19:09;;;;;;;6.5;5.3;;;;;;;9.15;78.46094;944.7938;;;;
2022/04/16 05:21:34;;;;;;;6.8;5.9;;;;;;;9.29;77.58594;944.8898;;;;
2022/04/16 05:24:01;;;;;;;7.3;5.6;;;;;;;9.03;78.28027;944.8553;;;;
2022/04/16 05:26:26;;;;;;;6.5;5.5;;;;;;;9.16;78.07617;944.8705;;;;
2022/04/16 05:28:56;;;;;;;7.9;5.7;;;;;;;9.22;77.5293;944.8142;;;;
2022/04/16 05:31:20;;;;;;;6.6;5.6;;;;;;;9.3;76.91602;944.8591;;;;
2022/04/16 05:36:14;;;;;;;7.1;5.9;;;;;;;9.05;77.64648;944.8208;;;;
2022/04/16 05:38:44;;;;;;;7.5;6.3;;;;;;;9.21;77.37793;944.8199;;;;
2022/04/16 05:41:09;;;;;;;7.5;6.6;;;;;;;9.09;77.67578;944.8226;;;;
2022/04/16 05:43:37;;;;;;;8;6.4;;;;;;;9.17;77.08691;944.8175;;;;
2022/04/16 05:46:03;;;;;;;7.3;5.9;;;;;;;9.24;76.77051;944.8267;;;;
2022/04/16 05:48:30;;;;;;;7.7;6.3;;;;;;;9.29;76.99414;944.8748;;;;
2022/04/16 05:50:55;;;;;;;8.2;6.3;;;;;;;9.29;76.8125;944.8755;;;;
2022/04/16 05:53:23;;;;;;;6.4;5.6;;;;;;;9.14;77.60547;944.8954;;;;
2022/04/16 05:55:50;;;;;;;7.5;6.2;;;;;;;8.99;78.63672;944.8992;;;;
2022/04/16 05:58:17;;;;;;;7.3;5.8;;;;;;;8.96;78.07227;944.8912;;;;
2022/04/16 06:00:42;;;;;;;8.8;6.1;;;;;;;9.07;78.17285;944.9325;;;;
2022/04/16 06:03:12;;;;;;;6.5;5.8;;;;;;;9.13;77.87793;944.9158;;;;
2022/04/16 06:05:48;;;;;;;9.2;6.6;;;;;;;9.14;77.54785;944.9692;;;;
2022/04/16 06:08:15;;;;;;;7.6;6.3;;;;;;;9.16;77.18848;945.0101;;;;
2022/04/16 06:10:40;;;;;;;7.6;6.3;;;;;;;9.13;76.38672;945.1152;;;;
2022/04/16 06:13:08;;;;;;;9.3;6.6;;;;;;;8.99;76.69043;945.0151;;;;
2022/04/16 06:15:34;;;;;;;8;6.1;;;;;;;8.9;77.65332;944.9739;;;;
2022/04/16 06:18:01;;;;;;;8.6;6.9;;;;;;;8.81;77.45508;945.1311;;;;
2022/04/16 06:20:26;;;;;;;8;6.4;;;;;;;8.83;77.81055;945.0769;;;;
2022/04/16 06:22:53;;;;;;;7.7;6.8;;;;;;;8.85;77.72461;945.16;;;;
2022/04/16 06:25:18;;;;;;;8.5;7;;;;;;;8.95;77.22852;945.1102;;;;
2022/04/16 06:27:46;;;;;;;7.9;6.7;;;;;;;8.88;78.04785;945.1019;;;;
2022/04/16 06:30:11;;;;;;;8.2;6.9;;;;;;;8.88;77.49023;945.1688;;;;
2022/04/16 06:32:37;;;;;;;8.3;6.9;;;;;;;8.86;77.28125;945.2213;;;;
2022/04/16 06:35:05;;;;;;;10.6;7.4;;;;;;;8.96;76.7998;945.1828;;;;
2022/04/16 06:37:34;;;;;;;8.9;7;;;;;;;8.99;76.99805;945.1431;;;;
2022/04/16 06:40:05;;;;;;;10.4;7.3;;;;;;;9.01;76.44336;945.1328;;;;
2022/04/16 06:42:28;;;;;;;8.4;7.5;;;;;;;8.97;76.79004;945.1442;;;;
2022/04/16 06:44:57;;;;;;;8.3;7;;;;;;;9.11;76.81445;945.1624;;;;
2022/04/16 06:47:23;;;;;;;8.2;6.9;;;;;;;9.03;76.44824;945.1411;;;;
2022/04/16 06:49:55;;;;;;;8.6;7;;;;;;;9.28;75.93555;945.1011;;;;
2022/04/16 06:52:26;;;;;;;8;7.1;;;;;;;9.36;75.11719;945.1078;;;;
2022/04/16 06:55:00;;;;;;;9.9;7.4;;;;;;;9.33;74.82617;945.1133;;;;
2022/04/16 06:57:33;;;;;;;9.1;6.9;;;;;;;8.95;76.93457;945.1111;;;;
2022/04/16 06:59:59;;;;;;;8.3;7;;;;;;;9.06;77.03223;945.1649;;;;
2022/04/16 07:02:28;;;;;;;8.9;7.7;;;;;;;9.01;77.25195;945.2101;;;;
2022/04/16 07:04:58;;;;;;;8.1;6.9;;;;;;;8.96;76.54785;945.1786;;;;
2022/04/16 07:07:29;;;;;;;9.5;7.7;;;;;;;8.82;76.93359;945.1345;;;;
2022/04/16 07:09:58;;;;;;;9.8;7.6;;;;;;;8.59;77.80078;945.1219;;;;
2022/04/16 07:12:23;;;;;;;10;7.7;;;;;;;8.59;78.4043;945.1951;;;;
2022/04/16 07:14:48;;;;;;;9.1;7.8;;;;;;;8.5;78.47949;945.2189;;;;
2022/04/16 07:17:17;;;;;;;10;7.5;;;;;;;8.44;79.08105;945.2154;;;;
2022/04/16 07:19:42;;;;;;;10.2;8.1;;;;;;;8.37;79.39746;945.2061;;;;
2022/04/16 07:22:07;;;;;;;9.3;8.1;;;;;;;8.48;78.6123;945.142;;;;
2022/04/16 07:24:38;;;;;;;9.8;8.3;;;;;;;8.47;78.68848;945.187;;;;
2022/04/16 07:27:01;;;;;;;10.6;8.5;;;;;;;8.32;79.77539;945.201;;;;
2022/04/16 07:29:30;;;;;;;11.4;8.8;;;;;;;8.48;79.31543;945.238;;;;
2022/04/16 07:31:54;;;;;;;10.1;8.2;;;;;;;8.65;78.4375;945.201;;;;
2022/04/16 07:34:25;;;;;;;10.1;8;;;;;;;8.72;77.51953;945.2522;;;;
2022/04/16 07:36:50;;;;;;;10.1;8.7;;;;;;;8.67;77.60059;945.3192;;;;
2022/04/16 07:39:19;;;;;;;9.2;7.6;;;;;;;8.74;76.9873;945.3044;;;;
2022/04/16 07:41:44;;;;;;;10.5;8.1;;;;;;;8.76;76.93457;945.3002;;;;
2022/04/16 07:44:14;;;;;;;10.9;8.2;;;;;;;8.7;77.76465;945.4192;;;;
2022/04/16 07:46:39;;;;;;;10.9;8.6;;;;;;;8.8;77.6123;945.4133;;;;
2022/04/16 07:49:07;;;;;;;10.9;8.5;;;;;;;8.87;76.94336;945.5045;;;;
2022/04/16 07:51:32;;;;;;;10.8;8.5;;;;;;;8.67;78.33984;945.3588;;;;
2022/04/16 07:53:59;;;;;;;10.8;8.5;;;;;;;8.59;78.4502;945.4673;;;;
2022/04/16 07:56:24;;;;;;;11.5;8.7;;;;;;;8.68;77.80566;945.5814;;;;
2022/04/16 07:58:53;;;;;;;10.9;8.4;;;;;;;8.59;78.30273;945.6057;;;;
2022/04/16 08:01:17;;;;;;;10.5;7.9;;;;;;;8.74;77.75;945.6332;;;;
2022/04/16 08:03:46;;;;;;;11.9;8.5;;;;;;;8.76;77.58301;945.644;;;;
2022/04/16 08:06:11;;;;;;;9.6;7.8;;;;;;;8.84;77.5625;945.7823;;;;
2022/04/16 08:08:42;;;;;;;10.1;8.1;;;;;;;8.67;77.15723;945.7184;;;;
2022/04/16 08:11:06;;;;;;;10.8;7.9;;;;;;;8.72;77.59961;945.7827;;;;
2022/04/16 08:13:33;;;;;;;10.7;8.3;;;;;;;8.75;77.22754;945.8134;;;;
2022/04/16 08:15:58;;;;;;;10.7;8;;;;;;;8.68;77.93262;945.7569;;;;
2022/04/16 08:18:26;;;;;;;9.7;7.9;;;;;;;8.49;78.27344;945.8052;;;;
2022/04/16 08:20:51;;;;;;;11.3;8.5;;;;;;;8.5;78.93164;945.8847;;;;
2022/04/16 08:23:20;;;;;;;10.3;8.1;;;;;;;8.34;79.41504;946.0272;;;;
2022/04/16 08:25:48;;;;;;;9.3;7.6;;;;;;;8.47;78.74512;946.0053;;;;
2022/04/16 08:28:10;;;;;;;10.1;8.6;;;;;;;8.47;78.84961;945.9395;;;;
2022/04/16 08:30:38;;;;;;;10.2;8.3;;;;;;;8.39;78.66406;946.0327;;;;
2022/04/16 08:33:03;;;;;;;11.2;7.9;;;;;;;8.45;78.71973;946.0553;;;;
2022/04/16 08:35:31;;;;;;;10.9;8.4;;;;;;;8.5;79.28418;946.0958;;;;
2022/04/16 08:37:56;;;;;;;9.2;7.5;;;;;;;8.63;77.94727;946.0374;;;;
2022/04/16 08:40:28;;;;;;;9.7;7.4;;;;;;;8.54;77.99902;946.0789;;;;
2022/04/16 08:42:57;;;;;;;9.7;7.9;;;;;;;8.65;78.52832;946.0363;;;;
2022/04/16 08:45:28;;;;;;;11.3;8.1;;;;;;;8.74;77.99902;946.0101;;;;
2022/04/16 08:47:59;;;;;;;9.7;7.7;;;;;;;8.77;78.32422;945.9675;;;;
2022/04/16 08:50:32;;;;;;;10.3;8.2;;;;;;;8.65;79.0166;946.0403;;;;
2022/04/16 08:53:02;;;;;;;10.6;8.3;;;;;;;8.55;79.87402;946.0831;;;;
2022/04/16 08:55:37;;;;;;;9.7;8.2;;;;;;;8.71;79.07422;946.08;;;;
2022/04/16 08:57:59;;;;;;;9.9;8.2;;;;;;;8.75;78.35352;946.0305;;;;
2022/04/16 09:00:27;;;;;;;9.3;7.5;;;;;;;8.75;78.3418;946.1337;;;;
2022/04/16 09:02:52;;;;;;;10.1;8;;;;;;;8.79;77.99707;946.1197;;;;
2022/04/16 09:05:17;;;;;;;9.8;7.9;;;;;;;8.86;77.24707;946.0886;;;;
2022/04/16 09:07:49;;;;;;;11.6;7.6;;;;;;;8.89;77.29883;946.1181;;;;
2022/04/16 09:10:19;;;;;;;9;7.5;;;;;;;9.1;77.21094;946.125;;;;
2022/04/16 09:12:49;;;;;;;8.7;6.5;;;;;;;9.23;74.59473;946.1542;;;;
2022/04/16 09:15:18;;;;;;;8.4;6.9;;;;;;;9.49;73.54492;946.1566;;;;
2022/04/16 09:17:44;;;;;;;7.6;6.6;;;;;;;9.63;72.96484;946.1526;;;;
2022/04/16 09:20:18;;;;;;;8.6;6.9;;;;;;;9.65;72.86621;946.072;;;;
2022/04/16 09:22:49;;;;;;;8.2;6.8;;;;;;;9.55;73.05371;946.1462;;;;
2022/04/16 09:25:13;;;;;;;6.6;5.8;;;;;;;9.47;72.2207;946.1459;;;;
2022/04/16 09:27:45;;;;;;;7.2;5.7;;;;;;;9.55;71.33398;946.0613;;;;
2022/04/16 09:30:14;;;;;;;6.2;5.3;;;;;;;9.62;70.77441;946.1213;;;;
2022/04/16 09:32:39;;;;;;;6.5;5.7;;;;;;;9.69;70.3418;946.1548;;;;
2022/04/16 09:35:11;;;;;;;5.7;5.1;;;;;;;9.74;69.66699;946.1752;;;;
2022/04/16 09:37:36;;;;;;;6.5;5.7;;;;;;;9.66;70.07715;946.2584;;;;
2022/04/16 09:40:03;;;;;;;6.6;5.5;;;;;;;9.69;69.64844;946.2106;;;;
2022/04/16 09:42:28;;;;;;;6.4;5.3;;;;;;;9.81;69.7002;946.2651;;;;
2022/04/16 09:44:55;;;;;;;6.4;5.1;;;;;;;9.9;70.02441;946.2512;;;;
2022/04/16 09:47:20;;;;;;;5.7;5;;;;;;;9.93;69.33301;946.2385;;;;
2022/04/16 09:52:25;;;;;;;5.7;4.7;;;;;;;9.91;67.03809;946.2053;;;;
2022/04/16 09:54:52;;;;;;;4.7;4.1;;;;;;;9.87;66.64551;946.2194;;;;
2022/04/16 09:57:17;;;;;;;5.4;4.6;;;;;;;9.96;67.01172;946.27;;;;
2022/04/16 09:59:42;;;;;;;5.2;4.6;;;;;;;9.93;67.22266;946.2486;;;;
2022/04/16 10:02:12;;;;;;;5.2;4.6;;;;;;;9.93;67.83887;946.2781;;;;
2022/04/16 10:04:37;;;;;;;6;4.1;;;;;;;10.07;66.94922;946.2525;;;;
2022/04/16 10:07:07;;;;;;;5.3;4.8;;;;;;;10;68.01074;946.3125;;;;
2022/04/16 10:09:41;;;;;;;5.1;4.6;;;;;;;9.93;68.32813;946.2947;;;;
2022/04/16 10:14:27;;;;;;;5.2;4.1;;;;;;;10.22;66.16309;946.3711;;;;
2022/04/16 10:19:19;;;;;;;5.3;4.5;;;;;;;10.3;65.85449;946.3856;;;;
2022/04/16 10:21:44;;;;;;;5.3;4.6;;;;;;;10.23;66.3457;946.3897;;;;
2022/04/16 10:24:10;;;;;;;5.1;4.3;;;;;;;10.21;66.74219;946.3251;;;;
2022/04/16 10:26:36;;;;;;;5.6;4.1;;;;;;;10.14;65.95703;946.3894;;;;
2022/04/16 10:29:00;;;;;;;4.8;4.3;;;;;;;10.07;66.35645;946.3987;;;;
2022/04/16 10:31:28;;;;;;;6.7;4.8;;;;;;;9.93;67.47266;946.3791;;;;
2022/04/16 10:33:55;;;;;;;4.5;4;;;;;;;10.01;66.39355;946.4348;;;;
2022/04/16 10:36:20;;;;;;;5.2;4.2;;;;;;;10.04;66.31836;946.4833;;;;
2022/04/16 10:38:47;;;;;;;5.3;4.5;;;;;;;10.04;67.18457;946.4077;;;;
2022/04/16 10:41:17;;;;;;;5.7;4.8;;;;;;;10.23;67.11035;946.4381;;;;
2022/04/16 10:43:45;;;;;;;6;4.3;;;;;;;10.18;65.58594;946.478;;;;
2022/04/16 10:46:10;;;;;;;5.4;4.3;;;;;;;10.04;66.60156;946.5485;;;;
2022/04/16 10:48:35;;;;;;;5.3;4.1;;;;;;;10.01;66.69043;946.5908;;;;
2022/04/16 10:51:00;;;;;;;4.9;4.1;;;;;;;10.23;65.87793;946.6054;;;;
2022/04/16 10:53:25;;;;;;;4;3.6;;;;;;;10.42;64.61816;946.65;;;;
2022/04/16 10:55:50;;;;;;;4.7;4.2;;;;;;;10.5;64.24121;946.7035;;;;
2022/04/16 10:58:20;;;;;;;5.1;4.1;;;;;;;10.49;65.53125;946.6644;;;;
2022/04/16 11:00:46;;;;;;;4.8;4.3;;;;;;;10.2;66.86621;946.6574;;;;
2022/04/16 11:03:11;;;;;;;4.9;4.4;;;;;;;10.4;66.19141;946.6541;;;;
2022/04/16 11:05:37;;;;;;;4.2;3.8;;;;;;;10.5;65.60156;946.6344;;;;
2022/04/16 11:08:04;;;;;;;4.8;3.9;;;;;;;10.67;63.18164;946.6687;;;;
2022/04/16 11:10:29;;;;;;;4.8;3.9;;;;;;;10.95;62.10254;946.6632;;;;
2022/04/16 11:12:57;;;;;;;5.1;4.1;;;;;;;11.29;61.52246;946.6119;;;;
2022/04/16 11:15:24;;;;;;;4;3.2;;;;;;;11.54;60.45898;946.5698;;;;
2022/04/16 11:17:51;;;;;;;4;3.3;;;;;;;11.8;58.58301;946.5585;;;;
2022/04/16 11:20:17;;;;;;;3.9;3.5;;;;;;;11.82;60.1084;946.5656;;;;
2022/04/16 11:22:46;;;;;;;3.8;3.2;;;;;;;11.98;59.1123;946.5469;;;;
2022/04/16 11:25:16;;;;;;;3.4;2.9;;;;;;;12.32;56.50879;946.494;;;;
2022/04/16 11:35:00;;;;;;;2.5;2.3;;;;;;;13.08;52.55469;946.491;;;;
2022/04/16 11:37:25;;;;;;;3.6;2.5;;;;;;;13.28;52.66992;946.4949;;;;
2022/04/16 11:39:54;;;;;;;2.3;2.1;;;;;;;13.46;51.07129;946.4836;;;;
2022/04/16 11:42:19;;;;;;;2.1;1.9;;;;;;;13.2;50.67383;946.4441;;;;
2022/04/16 11:44:45;;;;;;;2.2;1.9;;;;;;;13.42;50.80273;946.4368;;;;
2022/04/16 11:47:09;;;;;;;2.2;1.9;;;;;;;13.46;51.24414;946.4182;;;;
2022/04/16 11:49:37;;;;;;;2.3;2.1;;;;;;;13.55;49.20801;946.4327;;;;
2022/04/16 11:52:02;;;;;;;2.3;2.1;;;;;;;13.7;49.5;946.3833;;;;
2022/04/16 11:54:30;;;;;;;2.2;2;;;;;;;13.88;48.66992;946.4359;;;;
2022/04/16 11:56:55;;;;;;;2.4;2.1;;;;;;;14.67;47.98535;946.4608;;;;
2022/04/16 11:59:20;;;;;;;2.8;2.4;;;;;;;15.07;46.29883;946.4422;;;;
2022/04/16 12:01:45;;;;;;;2.9;2.6;;;;;;;14.75;48.61719;946.438;;;;
2022/04/16 12:04:15;;;;;;;3.6;3;;;;;;;14.31;49.8584;946.3619;;;;
2022/04/16 12:06:45;;;;;;;2.6;2.4;;;;;;;14.54;48.44336;946.405;;;;
2022/04/16 12:09:10;;;;;;;3.3;2.6;;;;;;;14.42;50.22852;946.4135;;;;
2022/04/16 12:11:37;;;;;;;3.5;2.9;;;;;;;14.14;50.11426;946.3513;;;;
2022/04/16 12:14:02;;;;;;;2.9;2.6;;;;;;;13.66;52.07324;946.3638;;;;
2022/04/16 12:16:29;;;;;;;3.2;2.7;;;;;;;13.61;52.19336;946.4069;;;;
2022/04/16 12:18:54;;;;;;;3.5;3.2;;;;;;;13.31;52.7998;946.4448;;;;
2022/04/16 12:21:19;;;;;;;3.9;3.4;;;;;;;12.81;56.11426;946.3915;;;;
2022/04/16 12:23:47;;;;;;;3.8;3.4;;;;;;;12.58;57.56445;946.4991;;;;
2022/04/16 12:26:12;;;;;;;3.6;3.2;;;;;;;12.62;57.53516;946.4808;;;;
2022/04/16 12:28:41;;;;;;;4.6;3.8;;;;;;;12.83;57.24121;946.5041;;;;
2022/04/16 12:31:06;;;;;;;5.1;4;;;;;;;12.64;58.65137;946.5387;;;;
2022/04/16 12:33:31;;;;;;;4.1;3.7;;;;;;;12.57;59.92676;946.4613;;;;
2022/04/16 12:35:59;;;;;;;4;3.6;;;;;;;12.24;59.43359;946.4711;;;;
2022/04/16 12:38:25;;;;;;;4.2;3.7;;;;;;;12.28;60.28711;946.4494;;;;
2022/04/16 12:40:52;;;;;;;4;3.6;;;;;;;12.3;59.45215;946.4856;;;;
2022/04/16 12:43:17;;;;;;;4.6;3.9;;;;;;;11.98;60.41699;946.4391;;;;
2022/04/16 12:45:45;;;;;;;4.5;4.1;;;;;;;11.53;62.27832;946.4956;;;;
2022/04/16 12:48:10;;;;;;;4.7;4;;;;;;;11.58;61.35742;946.4589;;;;
2022/04/16 12:50:38;;;;;;;4.8;4;;;;;;;11.33;61.93945;946.4938;;;;
2022/04/16 12:53:04;;;;;;;4.4;4;;;;;;;11.4;62.01855;946.4034;;;;
2022/04/16 12:55:33;;;;;;;4.7;3.8;;;;;;;11.39;61.99609;946.4536;;;;
2022/04/16 12:58:01;;;;;;;4.4;4;;;;;;;11.35;62.70996;946.4543;;;;
2022/04/16 13:00:26;;;;;;;4.5;3.6;;;;;;;11.34;62.45605;946.3727;;;;
2022/04/16 13:02:55;;;;;;;4.7;4.1;;;;;;;11.34;62.90332;946.4741;;;;
2022/04/16 13:05:29;;;;;;;5.7;4.4;;;;;;;11.35;62.8916;946.4822;;;;
2022/04/16 13:07:52;;;;;;;4.5;4.1;;;;;;;11.19;62.75488;946.4573;;;;
2022/04/16 13:10:24;;;;;;;4.8;4.4;;;;;;;11.02;64.2959;946.4156;;;;
2022/04/16 13:12:55;;;;;;;4.9;4.1;;;;;;;11.12;63.95508;946.5043;;;;
2022/04/16 13:15:28;;;;;;;5.1;4.6;;;;;;;10.96;64.55078;946.4771;;;;
2022/04/16 13:17:58;;;;;;;5;4.5;;;;;;;11.05;64.21973;946.5644;;;;
2022/04/16 13:20:23;;;;;;;4.8;4.3;;;;;;;11.03;63.88574;946.4556;;;;
2022/04/16 13:22:52;;;;;;;4.9;4.4;;;;;;;11.07;63.82227;946.4525;;;;
2022/04/16 13:25:21;;;;;;;5.1;4.5;;;;;;;10.93;64.35156;946.5217;;;;
2022/04/16 13:27:46;;;;;;;5;4.2;;;;;;;11.06;63.22656;946.4808;;;;
2022/04/16 13:30:18;;;;;;;4.9;4.3;;;;;;;11.04;63.45313;946.3571;;;;
2022/04/16 13:32:49;;;;;;;4.5;4.1;;;;;;;10.94;64.18164;946.4295;;;;
2022/04/16 13:35:15;;;;;;;4.9;4.4;;;;;;;11.03;63.69141;946.3519;;;;
2022/04/16 13:37:46;;;;;;;5.4;3.9;;;;;;;11.18;64.16016;946.3655;;;;
2022/04/16 13:42:43;;;;;;;5.1;4.5;;;;;;;11.36;62.98438;946.3317;;;;
2022/04/16 13:45:15;;;;;;;5.1;4.4;;;;;;;11.41;62.92383;946.3709;;;;
2022/04/16 13:47:44;;;;;;;4.9;4.2;;;;;;;11.44;61.39551;946.3599;;;;
2022/04/16 13:50:09;;;;;;;4.2;3.8;;;;;;;11.49;61.4707;946.4111;;;;
2022/04/16 13:52:42;;;;;;;5.2;3.8;;;;;;;11.56;60.5752;946.4355;;;;
2022/04/16 13:55:15;;;;;;;4.9;4.2;;;;;;;11.42;61.15332;946.3323;;;;
2022/04/16 14:02:57;;;;;;;4;3.7;;;;;;;11.38;61.70703;946.3546;;;;
2022/04/16 14:05:46;;;;;;;4.4;4;;;;;;;11.11;63.53223;946.4308;;;;
2022/04/16 14:07:58;;;;;;;5.7;4.8;;;;;;;10.66;66.97168;946.4662;;;;
2022/04/16 14:10:28;;;;;;;5.1;4.6;;;;;;;10.15;69.15234;946.4922;;;;
2022/04/16 14:12:58;;;;;;;4.3;3.9;;;;;;;10.31;68.80078;946.4814;;;;
2022/04/16 14:15:23;;;;;;;4.8;4.3;;;;;;;10.42;67.64355;946.5186;;;;
2022/04/16 14:17:51;;;;;;;4.9;4.4;;;;;;;10.58;67.30176;946.5779;;;;
2022/04/16 14:20:16;;;;;;;4.7;4.2;;;;;;;10.66;67.00586;946.5052;;;;
2022/04/16 14:22:45;;;;;;;5;4.5;;;;;;;10.73;68.51367;946.5482;;;;
2022/04/16 14:25:16;;;;;;;4.7;4.2;;;;;;;10.82;69.06543;946.5474;;;;
2022/04/16 14:27:44;;;;;;;4.1;3.7;;;;;;;11.07;67.21777;946.6533;;;;
2022/04/16 14:30:11;;;;;;;3.2;2.9;;;;;;;11.18;65.48535;946.6627;;;;
2022/04/16 14:32:39;;;;;;;4.6;4.2;;;;;;;11.15;66.94434;946.6716;;;;
2022/04/16 14:35:04;;;;;;;4.4;3.9;;;;;;;11.31;66.29395;946.6998;;;;
2022/04/16 14:37:34;;;;;;;4.3;3.9;;;;;;;11.09;66.61621;946.6617;;;;
2022/04/16 14:40:03;;;;;;;4.4;4;;;;;;;11.03;66.41211;946.642;;;;
2022/04/16 14:42:28;;;;;;;4.1;3.7;;;;;;;10.9;67.92285;946.635;;;;
2022/04/16 14:44:56;;;;;;;4;3.6;;;;;;;10.35;69.42383;946.7157;;;;
2022/04/16 14:47:21;;;;;;;3.3;3;;;;;;;10.58;68.43359;946.7214;;;;
2022/04/16 14:49:49;;;;;;;4;3.4;;;;;;;10.56;68.31543;946.6851;;;;
2022/04/16 14:52:14;;;;;;;5.2;4.3;;;;;;;10.6;69.32617;946.7464;;;;
2022/04/16 14:54:44;;;;;;;5.5;4.5;;;;;;;10.53;70.88965;946.7241;;;;
2022/04/16 14:57:09;;;;;;;5.1;4.4;;;;;;;10.51;71.91602;946.6936;;;;
2022/04/16 14:59:38;;;;;;;5.3;4.2;;;;;;;10.53;71.64355;946.6572;;;;
2022/04/16 15:02:03;;;;;;;5;4.4;;;;;;;10.68;70.17285;946.7039;;;;
2022/04/16 15:04:32;;;;;;;5;4.2;;;;;;;10.57;70.31543;946.6869;;;;
2022/04/16 15:06:57;;;;;;;6;4.6;;;;;;;10.65;69.40332;946.7439;;;;
2022/04/16 15:09:24;;;;;;;5.2;4.7;;;;;;;10.66;69.89551;946.7098;;;;
2022/04/16 15:11:49;;;;;;;5;4.5;;;;;;;10.72;69.07031;946.7645;;;;
2022/04/16 15:14:17;;;;;;;5.8;4.6;;;;;;;10.69;69.69434;946.7599;;;;
2022/04/16 15:16:42;;;;;;;6;5.4;;;;;;;10.64;70.55371;946.7358;;;;
2022/04/16 15:19:11;;;;;;;5.2;4.7;;;;;;;10.45;70.56836;946.7628;;;;
2022/04/16 15:21:36;;;;;;;4.9;4.4;;;;;;;10.62;69.90137;946.694;;;;
2022/04/16 15:24:03;;;;;;;4.3;3.9;;;;;;;10.68;68.50684;946.7351;;;;
2022/04/16 15:26:31;;;;;;;4.4;3.7;;;;;;;10.69;67.1709;946.7726;;;;
2022/04/16 15:28:53;;;;;;;4.7;3.8;;;;;;;10.47;67.80078;946.758;;;;
2022/04/16 15:31:20;;;;;;;4.8;4.3;;;;;;;10.57;68.53418;946.7952;;;;
2022/04/16 15:33:45;;;;;;;4.9;4.2;;;;;;;10.52;69.08496;946.845;;;;
2022/04/16 15:36:13;;;;;;;4.9;4.2;;;;;;;10.64;68.9668;946.832;;;;
2022/04/16 15:38:43;;;;;;;4.8;4.2;;;;;;;10.73;68.60645;946.8406;;;;
2022/04/16 15:41:08;;;;;;;5.1;3.8;;;;;;;10.81;68.35547;946.8176;;;;
2022/04/16 15:43:36;;;;;;;5;4.1;;;;;;;10.89;67.7168;946.7528;;;;
2022/04/16 15:46:01;;;;;;;5.1;4.4;;;;;;;10.89;67.88672;946.8627;;;;
2022/04/16 15:48:30;;;;;;;5;4.5;;;;;;;10.9;67.27148;946.756;;;;
2022/04/16 15:50:56;;;;;;;4.7;4.3;;;;;;;10.9;66.66699;946.7371;;;;
2022/04/16 15:53:23;;;;;;;4.7;4.3;;;;;;;10.8;66.82324;946.7967;;;;
2022/04/16 15:55:48;;;;;;;5.3;4.8;;;;;;;10.83;66.78027;946.8445;;;;
2022/04/16 15:58:15;;;;;;;5.2;4.7;;;;;;;10.89;65.91016;946.806;;;;
2022/04/16 16:00:40;;;;;;;6.1;5;;;;;;;10.86;66.14551;946.7983;;;;
2022/04/16 16:03:09;;;;;;;5.5;4.4;;;;;;;10.76;66.94141;946.823;;;;
2022/04/16 16:05:38;;;;;;;5.1;4.6;;;;;;;10.88;66.91406;946.8154;;;;
2022/04/16 16:08:04;;;;;;;4.9;4.4;;;;;;;10.76;65.94824;946.834;;;;
2022/04/16 16:10:28;;;;;;;4.9;4.4;;;;;;;10.81;65.16797;946.7889;;;;
2022/04/16 16:12:57;;;;;;;5.5;4.5;;;;;;;10.73;65.61133;946.7727;;;;
2022/04/16 16:15:22;;;;;;;4.6;4.2;;;;;;;10.84;65.28613;946.7756;;;;
2022/04/16 16:17:50;;;;;;;5;4.2;;;;;;;10.73;66.29688;946.7392;;;;
2022/04/16 16:20:15;;;;;;;5;4.5;;;;;;;10.65;66.95898;946.7574;;;;
2022/04/16 16:22:45;;;;;;;5;4.5;;;;;;;10.72;65.86133;946.8044;;;;
2022/04/16 16:25:26;;;;;;;5.3;4.7;;;;;;;10.49;67.57324;946.8131;;;;